sensor_id;sensor_type;location;lat;lon;timestamp;P1;durP1;ratioP1;P2;durP2;ratioP2
85162;SDS011;75527;48.526;9.158;2024-03-23T00:54:31;7.55;;;4.78;;
85162;SDS011;75527;48.526;9.158;2024-03-23T00:56:57;7.28;;;3.65;;
85162;SDS011;75527;48.526;9.158;2024-03-23T00:59:22;7.82;;;4.82;;
85162;SDS011;75527;48.526;9.158;2024-03-23T01:01:52;6.85;;;4.32;;
85162;SDS011;75527;48.526;9.158;2024-03-23T01:04:17;9.80;;;4.95;;
85162;SDS011;75527;48.526;9.158;2024-03-23T01:06:42;8.25;;;5.10;;
85162;SDS011;75527;48.526;9.158;2024-03-23T01:09:08;8.93;;;4.30;;
85162;SDS011;75527;48.526;9.158;2024-03-23T01:11:35;10.95;;;5.00;;
85162;SDS011;75527;48.526;9.158;2024-03-23T01:14:01;8.43;;;5.05;;
85162;SDS011;75527;48.526;9.158;2024-03-23T01:16:26;8.48;;;5.30;;
85162;SDS011;75527;48.526;9.158;2024-03-23T01:18:51;7.15;;;4.45;;
85162;SDS011;75527;48.526;9.158;2024-03-23T01:21:17;8.80;;;5.65;;
85162;SDS011;75527;48.526;9.158;2024-03-23T01:23:42;8.27;;;5.05;;
85162;SDS011;75527;48.526;9.158;2024-03-23T01:26:07;6.78;;;4.68;;
85162;SDS011;75527;48.526;9.158;2024-03-23T01:28:33;7.35;;;4.50;;
85162;SDS011;75527;48.526;9.158;2024-03-23T01:30:58;8.93;;;5.22;;
85162;SDS011;75527;48.526;9.158;2024-03-23T01:33:23;9.18;;;4.88;;
85162;SDS011;75527;48.526;9.158;2024-03-23T01:35:49;7.63;;;4.45;;
85162;SDS011;75527;48.526;9.158;2024-03-23T01:38:14;11.33;;;5.27;;
85162;SDS011;75527;48.526;9.158;2024-03-23T01:40:39;8.30;;;4.45;;
85162;SDS011;75527;48.526;9.158;2024-03-23T01:43:05;4.40;;;3.38;;
85162;SDS011;75527;48.526;9.158;2024-03-23T01:45:35;8.20;;;3.92;;
85162;SDS011;75527;48.526;9.158;2024-03-23T01:48:01;6.43;;;4.07;;
85162;SDS011;75527;48.526;9.158;2024-03-23T01:50:28;7.82;;;4.72;;
85162;SDS011;75527;48.526;9.158;2024-03-23T01:52:55;8.93;;;4.15;;
85162;SDS011;75527;48.526;9.158;2024-03-23T01:55:21;7.47;;;4.18;;
85162;SDS011;75527;48.526;9.158;2024-03-23T01:57:47;7.80;;;4.07;;
85162;SDS011;75527;48.526;9.158;2024-03-23T02:00:13;7.32;;;4.43;;
85162;SDS011;75527;48.526;9.158;2024-03-23T02:02:42;8.77;;;4.45;;
85162;SDS011;75527;48.526;9.158;2024-03-23T02:05:08;6.80;;;4.32;;
85162;SDS011;75527;48.526;9.158;2024-03-23T02:07:33;5.07;;;3.70;;
85162;SDS011;75527;48.526;9.158;2024-03-23T02:09:59;7.50;;;4.32;;
85162;SDS011;75527;48.526;9.158;2024-03-23T02:12:25;7.22;;;4.43;;
85162;SDS011;75527;48.526;9.158;2024-03-23T02:14:51;7.13;;;3.75;;
85162;SDS011;75527;48.526;9.158;2024-03-23T02:17:16;6.18;;;3.10;;
85162;SDS011;75527;48.526;9.158;2024-03-23T02:19:41;4.72;;;3.65;;
85162;SDS011;75527;48.526;9.158;2024-03-23T02:22:06;6.13;;;3.78;;
85162;SDS011;75527;48.526;9.158;2024-03-23T02:24:32;6.07;;;3.80;;
85162;SDS011;75527;48.526;9.158;2024-03-23T02:26:59;6.28;;;3.60;;
85162;SDS011;75527;48.526;9.158;2024-03-23T02:29:24;7.47;;;3.47;;
85162;SDS011;75527;48.526;9.158;2024-03-23T02:31:49;7.43;;;3.85;;
85162;SDS011;75527;48.526;9.158;2024-03-23T02:34:15;9.75;;;4.80;;
85162;SDS011;75527;48.526;9.158;2024-03-23T02:36:40;10.32;;;4.72;;
85162;SDS011;75527;48.526;9.158;2024-03-23T02:39:05;8.00;;;3.97;;
85162;SDS011;75527;48.526;9.158;2024-03-23T02:41:30;5.75;;;3.58;;
85162;SDS011;75527;48.526;9.158;2024-03-23T02:43:56;7.20;;;3.60;;
85162;SDS011;75527;48.526;9.158;2024-03-23T02:46:21;7.22;;;3.20;;
85162;SDS011;75527;48.526;9.158;2024-03-23T02:48:48;6.40;;;3.38;;
85162;SDS011;75527;48.526;9.158;2024-03-23T02:51:14;8.88;;;3.88;;
85162;SDS011;75527;48.526;9.158;2024-03-23T02:53:39;6.40;;;3.67;;
85162;SDS011;75527;48.526;9.158;2024-03-23T02:56:04;4.82;;;3.60;;
85162;SDS011;75527;48.526;9.158;2024-03-23T02:58:30;5.65;;;2.95;;
85162;SDS011;75527;48.526;9.158;2024-03-23T03:00:55;8.15;;;3.70;;
85162;SDS011;75527;48.526;9.158;2024-03-23T03:03:20;7.05;;;3.60;;
85162;SDS011;75527;48.526;9.158;2024-03-23T03:05:45;5.13;;;3.15;;
85162;SDS011;75527;48.526;9.158;2024-03-23T03:08:11;5.93;;;3.30;;
85162;SDS011;75527;48.526;9.158;2024-03-23T03:10:36;5.30;;;3.25;;
85162;SDS011;75527;48.526;9.158;2024-03-23T03:13:02;8.73;;;4.05;;
85162;SDS011;75527;48.526;9.158;2024-03-23T03:15:27;5.50;;;3.30;;
85162;SDS011;75527;48.526;9.158;2024-03-23T03:17:53;7.47;;;3.08;;
85162;SDS011;75527;48.526;9.158;2024-03-23T03:20:18;3.97;;;2.80;;
85162;SDS011;75527;48.526;9.158;2024-03-23T03:22:43;7.90;;;3.25;;
85162;SDS011;75527;48.526;9.158;2024-03-23T03:25:09;5.20;;;3.00;;
85162;SDS011;75527;48.526;9.158;2024-03-23T03:27:34;5.72;;;3.15;;
85162;SDS011;75527;48.526;9.158;2024-03-23T03:30:00;5.18;;;3.40;;
85162;SDS011;75527;48.526;9.158;2024-03-23T03:32:30;5.07;;;2.75;;
85162;SDS011;75527;48.526;9.158;2024-03-23T03:34:57;4.07;;;2.60;;
85162;SDS011;75527;48.526;9.158;2024-03-23T03:37:22;5.03;;;2.72;;
85162;SDS011;75527;48.526;9.158;2024-03-23T03:39:47;5.75;;;3.42;;
85162;SDS011;75527;48.526;9.158;2024-03-23T03:42:13;5.25;;;2.70;;
85162;SDS011;75527;48.526;9.158;2024-03-23T03:44:38;3.83;;;2.50;;
85162;SDS011;75527;48.526;9.158;2024-03-23T03:47:04;4.38;;;2.38;;
85162;SDS011;75527;48.526;9.158;2024-03-23T03:49:30;4.00;;;2.10;;
85162;SDS011;75527;48.526;9.158;2024-03-23T03:51:55;5.00;;;2.20;;
85162;SDS011;75527;48.526;9.158;2024-03-23T03:54:21;3.33;;;2.20;;
85162;SDS011;75527;48.526;9.158;2024-03-23T03:56:46;4.20;;;2.38;;
85162;SDS011;75527;48.526;9.158;2024-03-23T03:59:11;4.13;;;2.45;;
85162;SDS011;75527;48.526;9.158;2024-03-23T04:01:37;3.50;;;2.50;;
85162;SDS011;75527;48.526;9.158;2024-03-23T04:04:02;10.20;;;2.53;;
85162;SDS011;75527;48.526;9.158;2024-03-23T04:06:27;5.25;;;2.20;;
85162;SDS011;75527;48.526;9.158;2024-03-23T04:08:53;4.50;;;1.90;;
85162;SDS011;75527;48.526;9.158;2024-03-23T04:11:19;4.22;;;2.20;;
85162;SDS011;75527;48.526;9.158;2024-03-23T04:13:44;3.10;;;2.03;;
85162;SDS011;75527;48.526;9.158;2024-03-23T04:16:09;4.22;;;2.30;;
85162;SDS011;75527;48.526;9.158;2024-03-23T04:18:35;3.60;;;2.00;;
85162;SDS011;75527;48.526;9.158;2024-03-23T04:21:00;4.25;;;2.20;;
85162;SDS011;75527;48.526;9.158;2024-03-23T04:23:25;4.03;;;2.63;;
85162;SDS011;75527;48.526;9.158;2024-03-23T04:25:51;4.13;;;2.05;;
85162;SDS011;75527;48.526;9.158;2024-03-23T04:28:18;3.05;;;2.47;;
85162;SDS011;75527;48.526;9.158;2024-03-23T04:30:46;5.85;;;2.35;;
85162;SDS011;75527;48.526;9.158;2024-03-23T04:33:12;3.72;;;2.28;;
85162;SDS011;75527;48.526;9.158;2024-03-23T04:35:37;3.20;;;2.25;;
85162;SDS011;75527;48.526;9.158;2024-03-23T04:38:02;4.95;;;2.30;;
85162;SDS011;75527;48.526;9.158;2024-03-23T04:40:31;3.55;;;2.20;;
85162;SDS011;75527;48.526;9.158;2024-03-23T04:42:59;3.83;;;2.10;;
85162;SDS011;75527;48.526;9.158;2024-03-23T04:45:28;4.45;;;2.40;;
85162;SDS011;75527;48.526;9.158;2024-03-23T04:47:54;4.82;;;2.78;;
85162;SDS011;75527;48.526;9.158;2024-03-23T04:50:19;5.85;;;2.33;;
85162;SDS011;75527;48.526;9.158;2024-03-23T04:52:44;3.58;;;2.80;;
85162;SDS011;75527;48.526;9.158;2024-03-23T04:55:09;8.32;;;2.45;;
85162;SDS011;75527;48.526;9.158;2024-03-23T04:57:36;3.85;;;2.50;;
85162;SDS011;75527;48.526;9.158;2024-03-23T05:00:02;4.35;;;2.22;;
85162;SDS011;75527;48.526;9.158;2024-03-23T05:02:29;4.00;;;2.10;;
85162;SDS011;75527;48.526;9.158;2024-03-23T05:04:54;5.32;;;2.70;;
85162;SDS011;75527;48.526;9.158;2024-03-23T05:07:20;3.67;;;2.30;;
85162;SDS011;75527;48.526;9.158;2024-03-23T05:09:45;5.28;;;3.08;;
85162;SDS011;75527;48.526;9.158;2024-03-23T05:12:11;8.23;;;2.58;;
85162;SDS011;75527;48.526;9.158;2024-03-23T05:14:36;4.68;;;2.75;;
85162;SDS011;75527;48.526;9.158;2024-03-23T05:17:01;5.82;;;2.78;;
85162;SDS011;75527;48.526;9.158;2024-03-23T05:19:27;4.13;;;2.45;;
85162;SDS011;75527;48.526;9.158;2024-03-23T05:21:53;6.15;;;2.80;;
85162;SDS011;75527;48.526;9.158;2024-03-23T05:24:21;6.95;;;2.53;;
85162;SDS011;75527;48.526;9.158;2024-03-23T05:26:46;5.88;;;2.47;;
85162;SDS011;75527;48.526;9.158;2024-03-23T05:29:12;3.67;;;2.17;;
85162;SDS011;75527;48.526;9.158;2024-03-23T05:31:38;4.13;;;2.75;;
85162;SDS011;75527;48.526;9.158;2024-03-23T05:34:06;4.35;;;2.30;;
85162;SDS011;75527;48.526;9.158;2024-03-23T05:36:34;6.20;;;3.08;;
85162;SDS011;75527;48.526;9.158;2024-03-23T05:39:01;5.30;;;3.15;;
85162;SDS011;75527;48.526;9.158;2024-03-23T05:41:26;3.70;;;2.85;;
85162;SDS011;75527;48.526;9.158;2024-03-23T05:43:51;3.97;;;2.35;;
85162;SDS011;75527;48.526;9.158;2024-03-23T05:46:17;7.45;;;4.20;;
85162;SDS011;75527;48.526;9.158;2024-03-23T05:48:42;5.55;;;3.90;;
85162;SDS011;75527;48.526;9.158;2024-03-23T05:51:08;7.03;;;3.97;;
85162;SDS011;75527;48.526;9.158;2024-03-23T05:53:34;10.07;;;3.87;;
85162;SDS011;75527;48.526;9.158;2024-03-23T05:56:00;10.60;;;4.13;;
85162;SDS011;75527;48.526;9.158;2024-03-23T05:58:30;9.77;;;3.97;;
85162;SDS011;75527;48.526;9.158;2024-03-23T06:00:59;7.18;;;3.95;;
85162;SDS011;75527;48.526;9.158;2024-03-23T06:03:26;6.97;;;4.25;;
85162;SDS011;75527;48.526;9.158;2024-03-23T06:05:51;7.50;;;3.88;;
85162;SDS011;75527;48.526;9.158;2024-03-23T06:08:18;7.05;;;3.55;;
85162;SDS011;75527;48.526;9.158;2024-03-23T06:10:44;5.40;;;3.58;;
85162;SDS011;75527;48.526;9.158;2024-03-23T06:13:10;4.97;;;3.10;;
85162;SDS011;75527;48.526;9.158;2024-03-23T06:15:35;6.30;;;3.30;;
85162;SDS011;75527;48.526;9.158;2024-03-23T06:18:02;5.80;;;3.47;;
85162;SDS011;75527;48.526;9.158;2024-03-23T06:20:29;7.32;;;3.17;;
85162;SDS011;75527;48.526;9.158;2024-03-23T06:22:55;6.75;;;3.70;;
85162;SDS011;75527;48.526;9.158;2024-03-23T06:25:20;6.72;;;3.50;;
85162;SDS011;75527;48.526;9.158;2024-03-23T06:27:45;3.92;;;2.30;;
85162;SDS011;75527;48.526;9.158;2024-03-23T06:30:11;5.57;;;2.97;;
85162;SDS011;75527;48.526;9.158;2024-03-23T06:32:37;5.10;;;2.55;;
85162;SDS011;75527;48.526;9.158;2024-03-23T06:35:02;2.27;;;1.73;;
85162;SDS011;75527;48.526;9.158;2024-03-23T06:39:58;3.30;;;1.40;;
85162;SDS011;75527;48.526;9.158;2024-03-23T06:42:23;2.58;;;1.58;;
85162;SDS011;75527;48.526;9.158;2024-03-23T06:44:48;1.83;;;1.20;;
85162;SDS011;75527;48.526;9.158;2024-03-23T06:47:14;2.17;;;1.00;;
85162;SDS011;75527;48.526;9.158;2024-03-23T06:49:39;0.70;;;0.60;;
85162;SDS011;75527;48.526;9.158;2024-03-23T06:52:04;1.00;;;0.80;;
85162;SDS011;75527;48.526;9.158;2024-03-23T06:54:30;0.95;;;0.73;;
85162;SDS011;75527;48.526;9.158;2024-03-23T06:56:55;2.38;;;0.82;;
85162;SDS011;75527;48.526;9.158;2024-03-23T06:59:20;1.08;;;0.80;;
85162;SDS011;75527;48.526;9.158;2024-03-23T07:01:45;1.80;;;1.00;;
85162;SDS011;75527;48.526;9.158;2024-03-23T07:04:11;1.45;;;1.05;;
85162;SDS011;75527;48.526;9.158;2024-03-23T07:06:42;1.10;;;0.80;;
85162;SDS011;75527;48.526;9.158;2024-03-23T07:09:08;1.05;;;0.80;;
85162;SDS011;75527;48.526;9.158;2024-03-23T07:11:34;0.63;;;0.63;;
85162;SDS011;75527;48.526;9.158;2024-03-23T07:13:59;0.70;;;0.70;;
85162;SDS011;75527;48.526;9.158;2024-03-23T07:16:26;0.38;;;0.38;;
85162;SDS011;75527;48.526;9.158;2024-03-23T07:18:51;1.05;;;0.82;;
85162;SDS011;75527;48.526;9.158;2024-03-23T07:21:17;1.33;;;0.80;;
85162;SDS011;75527;48.526;9.158;2024-03-23T07:23:42;0.68;;;0.68;;
85162;SDS011;75527;48.526;9.158;2024-03-23T07:26:11;0.68;;;0.68;;
85162;SDS011;75527;48.526;9.158;2024-03-23T07:28:36;1.60;;;0.82;;
85162;SDS011;75527;48.526;9.158;2024-03-23T07:33:36;1.13;;;0.65;;
85162;SDS011;75527;48.526;9.158;2024-03-23T07:36:03;1.75;;;0.63;;
85162;SDS011;75527;48.526;9.158;2024-03-23T07:38:29;0.80;;;0.80;;
85162;SDS011;75527;48.526;9.158;2024-03-23T07:41:07;0.63;;;0.63;;
85162;SDS011;75527;48.526;9.158;2024-03-23T07:43:34;0.75;;;0.70;;
85162;SDS011;75527;48.526;9.158;2024-03-23T07:46:00;0.63;;;0.60;;
85162;SDS011;75527;48.526;9.158;2024-03-23T07:48:25;0.95;;;0.90;;
85162;SDS011;75527;48.526;9.158;2024-03-23T07:51:07;1.33;;;0.70;;
85162;SDS011;75527;48.526;9.158;2024-03-23T07:53:33;2.08;;;0.85;;
85162;SDS011;75527;48.526;9.158;2024-03-23T07:58:27;1.75;;;1.00;;
85162;SDS011;75527;48.526;9.158;2024-03-23T08:00:53;1.60;;;0.93;;
85162;SDS011;75527;48.526;9.158;2024-03-23T08:03:19;1.10;;;0.47;;
85162;SDS011;75527;48.526;9.158;2024-03-23T08:05:45;0.68;;;0.60;;
85162;SDS011;75527;48.526;9.158;2024-03-23T08:08:10;1.13;;;0.60;;
85162;SDS011;75527;48.526;9.158;2024-03-23T08:10:36;0.93;;;0.70;;
85162;SDS011;75527;48.526;9.158;2024-03-23T08:13:22;1.15;;;0.85;;
85162;SDS011;75527;48.526;9.158;2024-03-23T08:15:47;0.50;;;0.50;;
85162;SDS011;75527;48.526;9.158;2024-03-23T08:18:12;0.50;;;0.50;;
85162;SDS011;75527;48.526;9.158;2024-03-23T08:20:38;0.68;;;0.63;;
85162;SDS011;75527;48.526;9.158;2024-03-23T08:23:06;1.35;;;0.68;;
85162;SDS011;75527;48.526;9.158;2024-03-23T08:25:32;2.65;;;1.00;;
85162;SDS011;75527;48.526;9.158;2024-03-23T08:27:58;0.38;;;0.38;;
85162;SDS011;75527;48.526;9.158;2024-03-23T08:30:24;2.72;;;1.33;;
85162;SDS011;75527;48.526;9.158;2024-03-23T08:32:49;1.70;;;1.25;;
85162;SDS011;75527;48.526;9.158;2024-03-23T08:35:14;3.77;;;1.27;;
85162;SDS011;75527;48.526;9.158;2024-03-23T08:37:40;1.25;;;0.90;;
85162;SDS011;75527;48.526;9.158;2024-03-23T08:40:05;1.92;;;1.10;;
85162;SDS011;75527;48.526;9.158;2024-03-23T08:42:31;3.15;;;1.25;;
85162;SDS011;75527;48.526;9.158;2024-03-23T08:44:56;1.35;;;1.08;;
85162;SDS011;75527;48.526;9.158;2024-03-23T08:47:22;3.53;;;1.52;;
85162;SDS011;75527;48.526;9.158;2024-03-23T08:49:47;3.28;;;1.20;;
85162;SDS011;75527;48.526;9.158;2024-03-23T08:52:12;3.55;;;1.48;;
85162;SDS011;75527;48.526;9.158;2024-03-23T08:54:38;2.28;;;1.35;;
85162;SDS011;75527;48.526;9.158;2024-03-23T08:57:03;6.63;;;1.83;;
85162;SDS011;75527;48.526;9.158;2024-03-23T08:59:28;3.22;;;1.83;;
85162;SDS011;75527;48.526;9.158;2024-03-23T09:01:54;2.95;;;1.48;;
85162;SDS011;75527;48.526;9.158;2024-03-23T09:04:19;2.27;;;1.77;;
85162;SDS011;75527;48.526;9.158;2024-03-23T09:06:44;6.80;;;1.40;;
85162;SDS011;75527;48.526;9.158;2024-03-23T09:09:09;4.50;;;1.65;;
85162;SDS011;75527;48.526;9.158;2024-03-23T09:11:35;3.00;;;1.80;;
85162;SDS011;75527;48.526;9.158;2024-03-23T09:14:00;5.93;;;2.08;;
85162;SDS011;75527;48.526;9.158;2024-03-23T09:16:26;4.45;;;1.83;;
85162;SDS011;75527;48.526;9.158;2024-03-23T09:18:51;2.15;;;1.67;;
85162;SDS011;75527;48.526;9.158;2024-03-23T09:21:17;11.02;;;3.90;;
85162;SDS011;75527;48.526;9.158;2024-03-23T09:23:43;5.18;;;2.00;;
85162;SDS011;75527;48.526;9.158;2024-03-23T09:26:09;5.88;;;2.47;;
85162;SDS011;75527;48.526;9.158;2024-03-23T09:28:34;5.80;;;2.28;;
85162;SDS011;75527;48.526;9.158;2024-03-23T09:31:03;7.53;;;2.42;;
85162;SDS011;75527;48.526;9.158;2024-03-23T09:33:32;5.47;;;2.03;;
85162;SDS011;75527;48.526;9.158;2024-03-23T09:36:02;6.90;;;2.30;;
85162;SDS011;75527;48.526;9.158;2024-03-23T09:38:28;5.32;;;2.28;;
85162;SDS011;75527;48.526;9.158;2024-03-23T09:40:53;4.50;;;2.20;;
85162;SDS011;75527;48.526;9.158;2024-03-23T09:43:19;5.82;;;1.75;;
85162;SDS011;75527;48.526;9.158;2024-03-23T09:45:45;3.60;;;2.20;;
85162;SDS011;75527;48.526;9.158;2024-03-23T09:48:11;4.75;;;2.85;;
85162;SDS011;75527;48.526;9.158;2024-03-23T09:50:40;5.22;;;2.25;;
85162;SDS011;75527;48.526;9.158;2024-03-23T09:53:06;5.45;;;2.40;;
85162;SDS011;75527;48.526;9.158;2024-03-23T09:55:32;7.43;;;2.65;;
85162;SDS011;75527;48.526;9.158;2024-03-23T09:57:57;7.32;;;2.60;;
85162;SDS011;75527;48.526;9.158;2024-03-23T10:00:23;4.15;;;2.25;;
85162;SDS011;75527;48.526;9.158;2024-03-23T10:02:48;6.00;;;2.92;;
85162;SDS011;75527;48.526;9.158;2024-03-23T10:05:20;5.57;;;2.05;;
85162;SDS011;75527;48.526;9.158;2024-03-23T10:07:52;6.28;;;2.10;;
85162;SDS011;75527;48.526;9.158;2024-03-23T10:10:17;4.15;;;2.03;;
85162;SDS011;75527;48.526;9.158;2024-03-23T10:12:47;3.53;;;2.03;;
85162;SDS011;75527;48.526;9.158;2024-03-23T10:15:19;4.50;;;2.58;;
85162;SDS011;75527;48.526;9.158;2024-03-23T10:17:45;2.60;;;1.65;;
85162;SDS011;75527;48.526;9.158;2024-03-23T10:20:11;4.25;;;2.33;;
85162;SDS011;75527;48.526;9.158;2024-03-23T10:22:37;4.20;;;1.92;;
85162;SDS011;75527;48.526;9.158;2024-03-23T10:25:10;5.15;;;2.25;;
85162;SDS011;75527;48.526;9.158;2024-03-23T10:27:36;7.95;;;2.53;;
85162;SDS011;75527;48.526;9.158;2024-03-23T10:30:11;7.78;;;2.58;;
85162;SDS011;75527;48.526;9.158;2024-03-23T10:32:38;5.57;;;2.80;;
85162;SDS011;75527;48.526;9.158;2024-03-23T10:37:43;6.85;;;2.65;;
85162;SDS011;75527;48.526;9.158;2024-03-23T10:40:09;5.30;;;2.30;;
85162;SDS011;75527;48.526;9.158;2024-03-23T10:42:37;5.88;;;2.80;;
85162;SDS011;75527;48.526;9.158;2024-03-23T10:45:06;5.35;;;2.17;;
85162;SDS011;75527;48.526;9.158;2024-03-23T10:47:33;6.53;;;2.30;;
85162;SDS011;75527;48.526;9.158;2024-03-23T10:50:00;7.20;;;2.72;;
85162;SDS011;75527;48.526;9.158;2024-03-23T10:52:26;6.32;;;2.67;;
85162;SDS011;75527;48.526;9.158;2024-03-23T10:54:52;5.93;;;2.60;;
85162;SDS011;75527;48.526;9.158;2024-03-23T10:57:17;7.40;;;2.42;;
85162;SDS011;75527;48.526;9.158;2024-03-23T11:02:19;3.25;;;2.30;;
85162;SDS011;75527;48.526;9.158;2024-03-23T11:04:46;4.10;;;1.65;;
85162;SDS011;75527;48.526;9.158;2024-03-23T11:07:29;2.78;;;1.40;;
85162;SDS011;75527;48.526;9.158;2024-03-23T11:17:35;2.47;;;1.70;;
85162;SDS011;75527;48.526;9.158;2024-03-23T11:20:04;4.88;;;2.05;;
85162;SDS011;75527;48.526;9.158;2024-03-23T11:22:43;10.50;;;1.75;;
85162;SDS011;75527;48.526;9.158;2024-03-23T11:25:19;5.38;;;1.70;;
85162;SDS011;75527;48.526;9.158;2024-03-23T11:27:47;8.40;;;1.98;;
85162;SDS011;75527;48.526;9.158;2024-03-23T11:30:17;4.00;;;1.70;;
85162;SDS011;75527;48.526;9.158;2024-03-23T11:32:44;6.90;;;1.75;;
85162;SDS011;75527;48.526;9.158;2024-03-23T11:35:24;2.45;;;1.30;;
85162;SDS011;75527;48.526;9.158;2024-03-23T11:38:03;5.88;;;1.80;;
85162;SDS011;75527;48.526;9.158;2024-03-23T11:40:35;2.67;;;1.60;;
85162;SDS011;75527;48.526;9.158;2024-03-23T11:43:03;3.72;;;1.50;;
85162;SDS011;75527;48.526;9.158;2024-03-23T11:45:51;3.97;;;1.75;;
85162;SDS011;75527;48.526;9.158;2024-03-23T11:48:19;4.03;;;1.60;;
85162;SDS011;75527;48.526;9.158;2024-03-23T11:50:46;5.07;;;1.23;;
85162;SDS011;75527;48.526;9.158;2024-03-23T11:53:13;2.03;;;1.33;;
85162;SDS011;75527;48.526;9.158;2024-03-23T11:55:41;10.40;;;1.63;;
85162;SDS011;75527;48.526;9.158;2024-03-23T11:58:08;2.53;;;1.95;;
85162;SDS011;75527;48.526;9.158;2024-03-23T12:00:34;1.83;;;0.95;;
85162;SDS011;75527;48.526;9.158;2024-03-23T12:03:00;2.88;;;1.73;;
85162;SDS011;75527;48.526;9.158;2024-03-23T12:05:29;3.53;;;1.38;;
85162;SDS011;75527;48.526;9.158;2024-03-23T12:07:55;9.82;;;1.80;;
85162;SDS011;75527;48.526;9.158;2024-03-23T12:10:20;3.85;;;1.60;;
85162;SDS011;75527;48.526;9.158;2024-03-23T12:12:46;4.78;;;2.10;;
85162;SDS011;75527;48.526;9.158;2024-03-23T12:15:11;3.72;;;1.63;;
85162;SDS011;75527;48.526;9.158;2024-03-23T12:17:37;6.80;;;1.80;;
85162;SDS011;75527;48.526;9.158;2024-03-23T12:20:03;7.45;;;2.10;;
85162;SDS011;75527;48.526;9.158;2024-03-23T12:22:29;3.03;;;1.83;;
85162;SDS011;75527;48.526;9.158;2024-03-23T12:24:55;10.55;;;2.92;;
85162;SDS011;75527;48.526;9.158;2024-03-23T12:27:20;8.23;;;1.95;;
85162;SDS011;75527;48.526;9.158;2024-03-23T12:29:45;7.45;;;1.33;;
85162;SDS011;75527;48.526;9.158;2024-03-23T12:32:12;4.43;;;2.80;;
85162;SDS011;75527;48.526;9.158;2024-03-23T12:34:38;4.07;;;1.85;;
85162;SDS011;75527;48.526;9.158;2024-03-23T12:37:03;6.18;;;1.80;;
85162;SDS011;75527;48.526;9.158;2024-03-23T12:39:30;3.38;;;1.30;;
85162;SDS011;75527;48.526;9.158;2024-03-23T12:41:56;2.28;;;1.50;;
85162;SDS011;75527;48.526;9.158;2024-03-23T12:44:21;5.63;;;1.90;;
85162;SDS011;75527;48.526;9.158;2024-03-23T12:46:46;3.65;;;1.55;;
85162;SDS011;75527;48.526;9.158;2024-03-23T12:49:12;3.15;;;1.50;;
85162;SDS011;75527;48.526;9.158;2024-03-23T12:51:38;3.53;;;1.98;;
85162;SDS011;75527;48.526;9.158;2024-03-23T12:54:03;2.08;;;1.60;;
85162;SDS011;75527;48.526;9.158;2024-03-23T12:56:29;5.90;;;1.95;;
85162;SDS011;75527;48.526;9.158;2024-03-23T12:58:55;2.75;;;1.73;;
85162;SDS011;75527;48.526;9.158;2024-03-23T13:01:22;1.98;;;1.38;;
85162;SDS011;75527;48.526;9.158;2024-03-23T13:03:48;2.45;;;1.50;;
85162;SDS011;75527;48.526;9.158;2024-03-23T13:06:14;3.10;;;1.60;;
85162;SDS011;75527;48.526;9.158;2024-03-23T13:08:40;2.22;;;1.63;;
85162;SDS011;75527;48.526;9.158;2024-03-23T13:11:06;3.72;;;2.10;;
85162;SDS011;75527;48.526;9.158;2024-03-23T13:13:35;2.28;;;1.60;;
85162;SDS011;75527;48.526;9.158;2024-03-23T13:16:01;3.38;;;1.80;;
85162;SDS011;75527;48.526;9.158;2024-03-23T13:18:27;8.13;;;2.13;;
85162;SDS011;75527;48.526;9.158;2024-03-23T13:20:54;3.45;;;1.35;;
85162;SDS011;75527;48.526;9.158;2024-03-23T13:23:19;3.23;;;1.37;;
85162;SDS011;75527;48.526;9.158;2024-03-23T13:25:53;3.50;;;1.50;;
85162;SDS011;75527;48.526;9.158;2024-03-23T13:28:20;3.28;;;1.70;;
85162;SDS011;75527;48.526;9.158;2024-03-23T13:30:52;6.45;;;1.55;;
85162;SDS011;75527;48.526;9.158;2024-03-23T13:33:21;2.72;;;1.50;;
85162;SDS011;75527;48.526;9.158;2024-03-23T13:35:51;2.63;;;1.25;;
85162;SDS011;75527;48.526;9.158;2024-03-23T13:38:20;3.05;;;1.23;;
85162;SDS011;75527;48.526;9.158;2024-03-23T13:40:57;3.17;;;1.50;;
85162;SDS011;75527;48.526;9.158;2024-03-23T13:43:24;1.48;;;0.95;;
85162;SDS011;75527;48.526;9.158;2024-03-23T13:45:54;7.07;;;1.58;;
85162;SDS011;75527;48.526;9.158;2024-03-23T13:48:23;2.03;;;1.48;;
85162;SDS011;75527;48.526;9.158;2024-03-23T13:51:02;3.95;;;1.70;;
85162;SDS011;75527;48.526;9.158;2024-03-23T13:53:29;2.00;;;1.50;;
85162;SDS011;75527;48.526;9.158;2024-03-23T13:55:55;2.15;;;1.30;;
85162;SDS011;75527;48.526;9.158;2024-03-23T13:58:20;4.07;;;1.75;;
85162;SDS011;75527;48.526;9.158;2024-03-23T14:00:46;3.88;;;1.70;;
85162;SDS011;75527;48.526;9.158;2024-03-23T14:03:13;2.78;;;1.30;;
85162;SDS011;75527;48.526;9.158;2024-03-23T14:05:39;2.50;;;1.35;;
85162;SDS011;75527;48.526;9.158;2024-03-23T14:08:05;2.05;;;1.45;;
85162;SDS011;75527;48.526;9.158;2024-03-23T14:10:31;4.05;;;1.42;;
85162;SDS011;75527;48.526;9.158;2024-03-23T14:12:56;5.18;;;1.10;;
85162;SDS011;75527;48.526;9.158;2024-03-23T14:15:22;3.95;;;1.27;;
85162;SDS011;75527;48.526;9.158;2024-03-23T14:17:47;0.98;;;0.77;;
85162;SDS011;75527;48.526;9.158;2024-03-23T14:20:12;1.97;;;1.57;;
85162;SDS011;75527;48.526;9.158;2024-03-23T14:22:38;2.38;;;1.10;;
85162;SDS011;75527;48.526;9.158;2024-03-23T14:25:06;4.82;;;0.93;;
85162;SDS011;75527;48.526;9.158;2024-03-23T14:27:31;3.28;;;1.20;;
85162;SDS011;75527;48.526;9.158;2024-03-23T14:29:57;5.18;;;1.17;;
85162;SDS011;75527;48.526;9.158;2024-03-23T14:32:22;2.58;;;1.02;;
85162;SDS011;75527;48.526;9.158;2024-03-23T14:34:47;1.60;;;0.88;;
85162;SDS011;75527;48.526;9.158;2024-03-23T14:37:13;1.98;;;0.95;;
85162;SDS011;75527;48.526;9.158;2024-03-23T14:39:40;3.28;;;1.10;;
85162;SDS011;75527;48.526;9.158;2024-03-23T14:42:06;2.30;;;1.05;;
85162;SDS011;75527;48.526;9.158;2024-03-23T14:44:33;1.67;;;1.10;;
85162;SDS011;75527;48.526;9.158;2024-03-23T14:46:59;2.92;;;1.30;;
85162;SDS011;75527;48.526;9.158;2024-03-23T14:49:24;5.82;;;1.42;;
85162;SDS011;75527;48.526;9.158;2024-03-23T14:51:49;5.88;;;1.25;;
85162;SDS011;75527;48.526;9.158;2024-03-23T14:54:15;4.22;;;1.50;;
85162;SDS011;75527;48.526;9.158;2024-03-23T14:56:40;6.68;;;1.38;;
85162;SDS011;75527;48.526;9.158;2024-03-23T14:59:05;5.07;;;1.45;;
85162;SDS011;75527;48.526;9.158;2024-03-23T15:01:32;4.32;;;1.02;;
85162;SDS011;75527;48.526;9.158;2024-03-23T15:03:57;2.72;;;0.80;;
85162;SDS011;75527;48.526;9.158;2024-03-23T15:06:22;1.15;;;0.80;;
85162;SDS011;75527;48.526;9.158;2024-03-23T15:08:48;0.90;;;0.87;;
85162;SDS011;75527;48.526;9.158;2024-03-23T15:11:14;1.17;;;0.93;;
85162;SDS011;75527;48.526;9.158;2024-03-23T15:13:39;5.75;;;1.30;;
85162;SDS011;75527;48.526;9.158;2024-03-23T15:16:04;1.38;;;0.93;;
85162;SDS011;75527;48.526;9.158;2024-03-23T15:18:31;4.40;;;1.15;;
85162;SDS011;75527;48.526;9.158;2024-03-23T15:21:01;2.65;;;1.00;;
85162;SDS011;75527;48.526;9.158;2024-03-23T15:23:28;2.17;;;1.45;;
85162;SDS011;75527;48.526;9.158;2024-03-23T15:26:01;2.22;;;1.00;;
85162;SDS011;75527;48.526;9.158;2024-03-23T15:28:27;1.88;;;1.10;;
85162;SDS011;75527;48.526;9.158;2024-03-23T15:31:08;4.05;;;1.20;;
85162;SDS011;75527;48.526;9.158;2024-03-23T15:33:36;1.73;;;1.10;;
85162;SDS011;75527;48.526;9.158;2024-03-23T15:36:04;3.65;;;1.15;;
85162;SDS011;75527;48.526;9.158;2024-03-23T15:38:33;2.15;;;0.93;;
85162;SDS011;75527;48.526;9.158;2024-03-23T15:40:59;2.38;;;1.50;;
85162;SDS011;75527;48.526;9.158;2024-03-23T15:43:24;2.63;;;1.23;;
85162;SDS011;75527;48.526;9.158;2024-03-23T15:45:54;1.52;;;1.13;;
85162;SDS011;75527;48.526;9.158;2024-03-23T15:48:24;3.75;;;1.23;;
85162;SDS011;75527;48.526;9.158;2024-03-23T15:50:52;4.57;;;1.70;;
85162;SDS011;75527;48.526;9.158;2024-03-23T15:53:27;2.58;;;1.05;;
85162;SDS011;75527;48.526;9.158;2024-03-23T15:55:56;2.08;;;0.95;;
85162;SDS011;75527;48.526;9.158;2024-03-23T15:58:22;2.25;;;1.05;;